sensor_id;sensor_type;location;lat;lon;timestamp;temperature;humidity
68251;DHT22;55066;51.560;4.642;2022-07-17T00:00:44;16.91;59.20
68251;DHT22;55066;51.560;4.642;2022-07-17T00:03:11;16.90;59.57
68251;DHT22;55066;51.560;4.642;2022-07-17T00:05:36;16.69;59.93
68251;DHT22;55066;51.560;4.642;2022-07-17T00:08:02;16.79;59.51
68251;DHT22;55066;51.560;4.642;2022-07-17T00:10:28;16.81;59.43
68251;DHT22;55066;51.560;4.642;2022-07-17T00:12:53;16.84;59.37
68251;DHT22;55066;51.560;4.642;2022-07-17T00:15:19;16.91;58.98
68251;DHT22;55066;51.560;4.642;2022-07-17T00:17:44;16.97;59.26
68251;DHT22;55066;51.560;4.642;2022-07-17T00:20:11;16.70;61.69
68251;DHT22;55066;51.560;4.642;2022-07-17T00:22:36;16.69;59.30
68251;DHT22;55066;51.560;4.642;2022-07-17T00:25:02;16.64;60.41
68251;DHT22;55066;51.560;4.642;2022-07-17T00:27:28;16.33;60.73
68251;DHT22;55066;51.560;4.642;2022-07-17T00:29:54;16.36;60.07
68251;DHT22;55066;51.560;4.642;2022-07-17T00:32:19;16.42;60.71
68251;DHT22;55066;51.560;4.642;2022-07-17T00:34:45;16.39;59.96
68251;DHT22;55066;51.560;4.642;2022-07-17T00:37:10;16.35;60.55
68251;DHT22;55066;51.560;4.642;2022-07-17T00:39:35;16.28;60.31
68251;DHT22;55066;51.560;4.642;2022-07-17T00:42:01;16.38;60.13
68251;DHT22;55066;51.560;4.642;2022-07-17T00:44:27;16.46;59.62
68251;DHT22;55066;51.560;4.642;2022-07-17T00:46:52;16.30;59.91
68251;DHT22;55066;51.560;4.642;2022-07-17T00:49:18;16.38;59.91
68251;DHT22;55066;51.560;4.642;2022-07-17T00:51:43;16.30;59.89
68251;DHT22;55066;51.560;4.642;2022-07-17T00:54:10;16.25;60.40
68251;DHT22;55066;51.560;4.642;2022-07-17T00:56:37;16.15;60.33
68251;DHT22;55066;51.560;4.642;2022-07-17T00:59:03;16.19;60.25
68251;DHT22;55066;51.560;4.642;2022-07-17T01:01:29;16.02;60.67
68251;DHT22;55066;51.560;4.642;2022-07-17T01:03:55;15.91;63.27
68251;DHT22;55066;51.560;4.642;2022-07-17T01:06:20;15.94;60.78
68251;DHT22;55066;51.560;4.642;2022-07-17T01:08:45;16.05;61.12
68251;DHT22;55066;51.560;4.642;2022-07-17T01:11:11;16.01;60.42
68251;DHT22;55066;51.560;4.642;2022-07-17T01:13:36;16.14;60.11
68251;DHT22;55066;51.560;4.642;2022-07-17T01:16:02;16.04;60.12
68251;DHT22;55066;51.560;4.642;2022-07-17T01:18:28;15.88;60.65
68251;DHT22;55066;51.560;4.642;2022-07-17T01:20:53;15.74;60.98
68251;DHT22;55066;51.560;4.642;2022-07-17T01:23:19;15.74;61.43
68251;DHT22;55066;51.560;4.642;2022-07-17T01:25:45;15.81;60.48
68251;DHT22;55066;51.560;4.642;2022-07-17T01:28:11;15.81;60.80
68251;DHT22;55066;51.560;4.642;2022-07-17T01:30:45;15.86;60.76
68251;DHT22;55066;51.560;4.642;2022-07-17T01:33:10;16.01;60.08
68251;DHT22;55066;51.560;4.642;2022-07-17T01:35:36;16.01;59.94
68251;DHT22;55066;51.560;4.642;2022-07-17T01:38:02;15.88;60.47
68251;DHT22;55066;51.560;4.642;2022-07-17T01:40:28;15.81;60.42
68251;DHT22;55066;51.560;4.642;2022-07-17T01:42:53;15.46;61.97
68251;DHT22;55066;51.560;4.642;2022-07-17T01:45:19;15.33;61.74
68251;DHT22;55066;51.560;4.642;2022-07-17T01:47:44;15.47;61.32
68251;DHT22;55066;51.560;4.642;2022-07-17T01:50:11;15.63;60.82
68251;DHT22;55066;51.560;4.642;2022-07-17T01:52:38;15.64;60.70
68251;DHT22;55066;51.560;4.642;2022-07-17T01:55:09;15.64;60.74
68251;DHT22;55066;51.560;4.642;2022-07-17T01:57:34;15.32;61.63
68251;DHT22;55066;51.560;4.642;2022-07-17T02:00:01;15.21;63.03
68251;DHT22;55066;51.560;4.642;2022-07-17T02:02:33;15.19;62.66
68251;DHT22;55066;51.560;4.642;2022-07-17T02:04:58;15.28;61.65
68251;DHT22;55066;51.560;4.642;2022-07-17T02:07:24;15.06;62.67
68251;DHT22;55066;51.560;4.642;2022-07-17T02:09:50;15.14;62.09
68251;DHT22;55066;51.560;4.642;2022-07-17T02:12:15;15.33;61.15
68251;DHT22;55066;51.560;4.642;2022-07-17T02:14:44;15.21;61.57
68251;DHT22;55066;51.560;4.642;2022-07-17T02:17:09;15.28;61.32
68251;DHT22;55066;51.560;4.642;2022-07-17T02:19:35;15.19;61.32
68251;DHT22;55066;51.560;4.642;2022-07-17T02:22:01;15.04;61.86
68251;DHT22;55066;51.560;4.642;2022-07-17T02:24:27;15.06;61.84
68251;DHT22;55066;51.560;4.642;2022-07-17T02:26:52;14.92;61.96
68251;DHT22;55066;51.560;4.642;2022-07-17T02:29:18;14.89;61.98
68251;DHT22;55066;51.560;4.642;2022-07-17T02:31:43;15.02;61.77
68251;DHT22;55066;51.560;4.642;2022-07-17T02:34:09;15.04;62.39
68251;DHT22;55066;51.560;4.642;2022-07-17T02:36:34;14.98;61.68
68251;DHT22;55066;51.560;4.642;2022-07-17T02:39:01;14.99;61.40
68251;DHT22;55066;51.560;4.642;2022-07-17T02:41:26;14.92;61.84
68251;DHT22;55066;51.560;4.642;2022-07-17T02:43:51;14.91;62.04
68251;DHT22;55066;51.560;4.642;2022-07-17T02:46:17;14.76;61.94
68251;DHT22;55066;51.560;4.642;2022-07-17T02:48:42;14.89;61.65
68251;DHT22;55066;51.560;4.642;2022-07-17T02:51:08;14.83;61.78
68251;DHT22;55066;51.560;4.642;2022-07-17T02:53:34;14.80;61.90
68251;DHT22;55066;51.560;4.642;2022-07-17T02:55:59;14.78;62.28
68251;DHT22;55066;51.560;4.642;2022-07-17T02:58:25;14.81;61.39
68251;DHT22;55066;51.560;4.642;2022-07-17T03:00:50;14.92;60.97
68251;DHT22;55066;51.560;4.642;2022-07-17T03:03:16;14.92;61.00
68251;DHT22;55066;51.560;4.642;2022-07-17T03:05:41;14.89;61.08
68251;DHT22;55066;51.560;4.642;2022-07-17T03:08:07;14.91;60.92
68251;DHT22;55066;51.560;4.642;2022-07-17T03:10:32;14.83;60.92
68251;DHT22;55066;51.560;4.642;2022-07-17T03:12:57;14.85;61.04
68251;DHT22;55066;51.560;4.642;2022-07-17T03:15:23;14.80;61.05
68251;DHT22;55066;51.560;4.642;2022-07-17T03:17:48;14.74;61.33
68251;DHT22;55066;51.560;4.642;2022-07-17T03:20:14;14.68;61.35
68251;DHT22;55066;51.560;4.642;2022-07-17T03:22:39;14.64;61.44
68251;DHT22;55066;51.560;4.642;2022-07-17T03:25:05;14.70;61.10
68251;DHT22;55066;51.560;4.642;2022-07-17T03:27:31;14.71;61.08
68251;DHT22;55066;51.560;4.642;2022-07-17T03:29:56;14.44;61.87
68251;DHT22;55066;51.560;4.642;2022-07-17T03:32:21;14.49;61.74
68251;DHT22;55066;51.560;4.642;2022-07-17T03:34:47;14.50;61.59
68251;DHT22;55066;51.560;4.642;2022-07-17T03:37:12;14.34;62.80
68251;DHT22;55066;51.560;4.642;2022-07-17T03:39:38;14.36;61.69
68251;DHT22;55066;51.560;4.642;2022-07-17T03:42:03;14.46;61.65
68251;DHT22;55066;51.560;4.642;2022-07-17T03:44:29;14.56;61.20
68251;DHT22;55066;51.560;4.642;2022-07-17T03:46:54;14.61;61.04
68251;DHT22;55066;51.560;4.642;2022-07-17T03:49:20;14.18;62.32
68251;DHT22;55066;51.560;4.642;2022-07-17T03:51:46;14.09;62.61
68251;DHT22;55066;51.560;4.642;2022-07-17T03:54:11;14.20;62.13
68251;DHT22;55066;51.560;4.642;2022-07-17T03:56:37;14.43;61.45
68251;DHT22;55066;51.560;4.642;2022-07-17T03:59:02;14.32;61.79
68251;DHT22;55066;51.560;4.642;2022-07-17T04:01:27;14.20;61.99
68251;DHT22;55066;51.560;4.642;2022-07-17T04:03:53;14.40;61.32
68251;DHT22;55066;51.560;4.642;2022-07-17T04:06:18;14.40;61.24
68251;DHT22;55066;51.560;4.642;2022-07-17T04:08:43;14.37;61.87
68251;DHT22;55066;51.560;4.642;2022-07-17T04:11:09;14.40;61.15
68251;DHT22;55066;51.560;4.642;2022-07-17T04:13:34;14.44;61.10
68251;DHT22;55066;51.560;4.642;2022-07-17T04:16:01;14.26;62.31
68251;DHT22;55066;51.560;4.642;2022-07-17T04:18:29;14.37;61.01
68251;DHT22;55066;51.560;4.642;2022-07-17T04:20:58;14.40;61.50
68251;DHT22;55066;51.560;4.642;2022-07-17T04:23:23;14.26;61.71
68251;DHT22;55066;51.560;4.642;2022-07-17T04:25:49;14.16;61.91
68251;DHT22;55066;51.560;4.642;2022-07-17T04:28:15;14.30;61.35
68251;DHT22;55066;51.560;4.642;2022-07-17T04:30:41;14.33;61.20
68251;DHT22;55066;51.560;4.642;2022-07-17T04:33:07;14.16;61.76
68251;DHT22;55066;51.560;4.642;2022-07-17T04:35:33;14.26;61.15
68251;DHT22;55066;51.560;4.642;2022-07-17T04:37:59;14.20;62.06
68251;DHT22;55066;51.560;4.642;2022-07-17T04:40:24;14.02;62.15
68251;DHT22;55066;51.560;4.642;2022-07-17T04:42:50;14.13;61.25
68251;DHT22;55066;51.560;4.642;2022-07-17T04:45:15;14.32;60.98
68251;DHT22;55066;51.560;4.642;2022-07-17T04:47:41;14.29;61.22
68251;DHT22;55066;51.560;4.642;2022-07-17T04:50:08;14.28;61.15
68251;DHT22;55066;51.560;4.642;2022-07-17T04:52:34;14.41;60.84
68251;DHT22;55066;51.560;4.642;2022-07-17T04:54:59;14.56;59.86
68251;DHT22;55066;51.560;4.642;2022-07-17T04:57:25;14.64;60.07
68251;DHT22;55066;51.560;4.642;2022-07-17T04:59:50;14.57;63.19
68251;DHT22;55066;51.560;4.642;2022-07-17T05:02:16;14.59;60.14
68251;DHT22;55066;51.560;4.642;2022-07-17T05:04:41;14.83;59.97
68251;DHT22;55066;51.560;4.642;2022-07-17T05:07:06;14.80;60.23
68251;DHT22;55066;51.560;4.642;2022-07-17T05:09:32;14.85;60.48
68251;DHT22;55066;51.560;4.642;2022-07-17T05:11:58;14.84;67.48
68251;DHT22;55066;51.560;4.642;2022-07-17T05:14:27;14.88;61.64
68251;DHT22;55066;51.560;4.642;2022-07-17T05:16:52;14.78;71.50
68251;DHT22;55066;51.560;4.642;2022-07-17T05:19:17;14.85;61.80
68251;DHT22;55066;51.560;4.642;2022-07-17T05:21:43;15.11;59.79
68251;DHT22;55066;51.560;4.642;2022-07-17T05:24:08;15.32;70.21
68251;DHT22;55066;51.560;4.642;2022-07-17T05:26:37;15.08;74.82
68251;DHT22;55066;51.560;4.642;2022-07-17T05:29:02;15.08;60.64
68251;DHT22;55066;51.560;4.642;2022-07-17T05:31:27;15.25;64.38
68251;DHT22;55066;51.560;4.642;2022-07-17T05:33:59;15.22;73.73
68251;DHT22;55066;51.560;4.642;2022-07-17T05:36:24;15.26;73.18
68251;DHT22;55066;51.560;4.642;2022-07-17T05:38:50;15.25;74.11
68251;DHT22;55066;51.560;4.642;2022-07-17T05:41:15;15.36;71.83
68251;DHT22;55066;51.560;4.642;2022-07-17T05:43:41;15.46;69.67
68251;DHT22;55066;51.560;4.642;2022-07-17T05:46:06;15.49;67.76
68251;DHT22;55066;51.560;4.642;2022-07-17T05:48:31;15.46;75.42
68251;DHT22;55066;51.560;4.642;2022-07-17T05:50:57;15.54;74.65
68251;DHT22;55066;51.560;4.642;2022-07-17T05:53:23;15.77;71.45
68251;DHT22;55066;51.560;4.642;2022-07-17T05:55:48;15.67;75.12
68251;DHT22;55066;51.560;4.642;2022-07-17T05:58:14;15.70;70.08
68251;DHT22;55066;51.560;4.642;2022-07-17T06:00:39;15.81;74.17
68251;DHT22;55066;51.560;4.642;2022-07-17T06:03:05;15.80;74.51
68251;DHT22;55066;51.560;4.642;2022-07-17T06:05:30;15.91;74.52
68251;DHT22;55066;51.560;4.642;2022-07-17T06:07:57;16.04;74.05
68251;DHT22;55066;51.560;4.642;2022-07-17T06:10:27;16.28;73.17
68251;DHT22;55066;51.560;4.642;2022-07-17T06:12:52;16.19;73.45
68251;DHT22;55066;51.560;4.642;2022-07-17T06:15:21;16.41;70.65
68251;DHT22;55066;51.560;4.642;2022-07-17T06:17:47;16.62;61.86
68251;DHT22;55066;51.560;4.642;2022-07-17T06:20:13;16.62;71.35
68251;DHT22;55066;51.560;4.642;2022-07-17T06:22:39;16.83;66.33
68251;DHT22;55066;51.560;4.642;2022-07-17T06:25:06;16.94;70.26
68251;DHT22;55066;51.560;4.642;2022-07-17T06:27:31;17.03;71.26
68251;DHT22;55066;51.560;4.642;2022-07-17T06:29:57;17.07;70.89
68251;DHT22;55066;51.560;4.642;2022-07-17T06:32:22;16.94;69.67
68251;DHT22;55066;51.560;4.642;2022-07-17T06:34:48;17.27;62.66
68251;DHT22;55066;51.560;4.642;2022-07-17T06:37:13;17.65;64.34
68251;DHT22;55066;51.560;4.642;2022-07-17T06:39:39;17.73;59.92
68251;DHT22;55066;51.560;4.642;2022-07-17T06:42:04;17.80;66.07
68251;DHT22;55066;51.560;4.642;2022-07-17T06:44:30;17.94;64.13
68251;DHT22;55066;51.560;4.642;2022-07-17T06:46:56;18.00;59.75
68251;DHT22;55066;51.560;4.642;2022-07-17T06:49:21;18.14;63.73
68251;DHT22;55066;51.560;4.642;2022-07-17T06:51:46;18.01;61.65
68251;DHT22;55066;51.560;4.642;2022-07-17T06:54:13;18.38;59.80
68251;DHT22;55066;51.560;4.642;2022-07-17T06:56:41;18.59;62.36
68251;DHT22;55066;51.560;4.642;2022-07-17T06:59:07;18.48;66.51
68251;DHT22;55066;51.560;4.642;2022-07-17T07:01:36;18.83;62.59
68251;DHT22;55066;51.560;4.642;2022-07-17T07:04:03;18.79;64.40
68251;DHT22;55066;51.560;4.642;2022-07-17T07:06:28;19.35;60.02
68251;DHT22;55066;51.560;4.642;2022-07-17T07:08:54;19.65;55.49
68251;DHT22;55066;51.560;4.642;2022-07-17T07:11:20;19.45;63.02
68251;DHT22;55066;51.560;4.642;2022-07-17T07:13:46;19.75;56.30
68251;DHT22;55066;51.560;4.642;2022-07-17T07:16:11;19.66;62.50
68251;DHT22;55066;51.560;4.642;2022-07-17T07:18:37;19.38;62.45
68251;DHT22;55066;51.560;4.642;2022-07-17T07:21:02;18.96;63.42
68251;DHT22;55066;51.560;4.642;2022-07-17T07:23:28;19.51;61.22
68251;DHT22;55066;51.560;4.642;2022-07-17T07:25:53;19.62;60.08
68251;DHT22;55066;51.560;4.642;2022-07-17T07:28:19;20.10;60.56
68251;DHT22;55066;51.560;4.642;2022-07-17T07:30:44;20.18;59.18
68251;DHT22;55066;51.560;4.642;2022-07-17T07:33:15;20.73;58.75
68251;DHT22;55066;51.560;4.642;2022-07-17T07:35:42;20.79;58.47
68251;DHT22;55066;51.560;4.642;2022-07-17T07:38:08;20.69;59.19
68251;DHT22;55066;51.560;4.642;2022-07-17T07:40:36;20.49;59.46
68251;DHT22;55066;51.560;4.642;2022-07-17T07:43:02;20.79;58.64
68251;DHT22;55066;51.560;4.642;2022-07-17T07:45:28;21.34;57.98
68251;DHT22;55066;51.560;4.642;2022-07-17T07:47:54;21.24;57.71
68251;DHT22;55066;51.560;4.642;2022-07-17T07:50:23;21.07;59.21
68251;DHT22;55066;51.560;4.642;2022-07-17T07:52:49;21.20;58.98
68251;DHT22;55066;51.560;4.642;2022-07-17T07:55:18;21.78;56.89
68251;DHT22;55066;51.560;4.642;2022-07-17T07:57:43;22.60;55.20
68251;DHT22;55066;51.560;4.642;2022-07-17T08:00:10;22.71;54.88
68251;DHT22;55066;51.560;4.642;2022-07-17T08:02:40;23.06;54.20
68251;DHT22;55066;51.560;4.642;2022-07-17T08:05:05;23.47;53.55
68251;DHT22;55066;51.560;4.642;2022-07-17T08:07:31;22.64;55.18
68251;DHT22;55066;51.560;4.642;2022-07-17T08:09:57;22.10;56.80
68251;DHT22;55066;51.560;4.642;2022-07-17T08:12:23;22.10;56.53
68251;DHT22;55066;51.560;4.642;2022-07-17T08:14:49;22.24;56.12
68251;DHT22;55066;51.560;4.642;2022-07-17T08:17:15;22.17;55.98
68251;DHT22;55066;51.560;4.642;2022-07-17T08:19:40;22.72;55.95
68251;DHT22;55066;51.560;4.642;2022-07-17T08:22:05;23.56;53.63
68251;DHT22;55066;51.560;4.642;2022-07-17T08:24:31;22.87;54.28
68251;DHT22;55066;51.560;4.642;2022-07-17T08:26:56;22.51;54.11
68251;DHT22;55066;51.560;4.642;2022-07-17T08:29:21;23.32;54.03
68251;DHT22;55066;51.560;4.642;2022-07-17T08:31:47;22.78;54.69
68251;DHT22;55066;51.560;4.642;2022-07-17T08:34:12;22.85;54.02
68251;DHT22;55066;51.560;4.642;2022-07-17T08:36:40;23.39;54.60
68251;DHT22;55066;51.560;4.642;2022-07-17T08:39:05;23.30;54.82
68251;DHT22;55066;51.560;4.642;2022-07-17T08:41:31;21.78;55.18
68251;DHT22;55066;51.560;4.642;2022-07-17T08:44:02;22.22;55.30
68251;DHT22;55066;51.560;4.642;2022-07-17T08:46:28;22.40;55.79
68251;DHT22;55066;51.560;4.642;2022-07-17T08:48:58;21.98;56.80
68251;DHT22;55066;51.560;4.642;2022-07-17T08:51:25;22.64;57.61
68251;DHT22;55066;51.560;4.642;2022-07-17T08:53:52;22.69;52.50
68251;DHT22;55066;51.560;4.642;2022-07-17T08:56:18;22.30;54.56
68251;DHT22;55066;51.560;4.642;2022-07-17T08:58:43;23.66;54.09
68251;DHT22;55066;51.560;4.642;2022-07-17T09:01:09;24.77;51.77
68251;DHT22;55066;51.560;4.642;2022-07-17T09:03:34;23.36;51.21
68251;DHT22;55066;51.560;4.642;2022-07-17T09:06:01;22.91;53.58
68251;DHT22;55066;51.560;4.642;2022-07-17T09:08:27;23.16;52.13
68251;DHT22;55066;51.560;4.642;2022-07-17T09:10:57;23.02;54.32
68251;DHT22;55066;51.560;4.642;2022-07-17T09:13:30;23.12;54.70
68251;DHT22;55066;51.560;4.642;2022-07-17T09:15:58;24.00;54.60
68251;DHT22;55066;51.560;4.642;2022-07-17T09:18:25;23.88;50.82
68251;DHT22;55066;51.560;4.642;2022-07-17T09:20:54;24.05;49.62
68251;DHT22;55066;51.560;4.642;2022-07-17T09:23:20;23.73;52.95
68251;DHT22;55066;51.560;4.642;2022-07-17T09:25:52;24.24;48.68
68251;DHT22;55066;51.560;4.642;2022-07-17T09:28:18;25.49;48.06
68251;DHT22;55066;51.560;4.642;2022-07-17T09:30:53;26.80;49.18
68251;DHT22;55066;51.560;4.642;2022-07-17T09:33:27;27.11;48.56
68251;DHT22;55066;51.560;4.642;2022-07-17T09:36:06;26.49;49.32
68251;DHT22;55066;51.560;4.642;2022-07-17T09:38:37;26.55;50.27
68251;DHT22;55066;51.560;4.642;2022-07-17T09:41:14;26.92;47.76
68251;DHT22;55066;51.560;4.642;2022-07-17T09:43:55;26.04;50.82
68251;DHT22;55066;51.560;4.642;2022-07-17T09:46:33;25.70;51.65
68251;DHT22;55066;51.560;4.642;2022-07-17T09:49:03;27.11;49.90
68251;DHT22;55066;51.560;4.642;2022-07-17T09:51:36;27.17;50.15
68251;DHT22;55066;51.560;4.642;2022-07-17T09:54:06;25.79;52.59
68251;DHT22;55066;51.560;4.642;2022-07-17T09:56:33;25.11;47.23
68251;DHT22;55066;51.560;4.642;2022-07-17T09:59:09;25.10;54.26
68251;DHT22;55066;51.560;4.642;2022-07-17T10:01:36;27.63;49.91
68251;DHT22;55066;51.560;4.642;2022-07-17T10:04:06;26.27;46.35
68251;DHT22;55066;51.560;4.642;2022-07-17T10:06:32;26.34;53.21
68251;DHT22;55066;51.560;4.642;2022-07-17T10:08:58;28.02;49.05
68251;DHT22;55066;51.560;4.642;2022-07-17T10:11:28;27.44;43.23
68251;DHT22;55066;51.560;4.642;2022-07-17T10:13:56;26.78;45.23
68251;DHT22;55066;51.560;4.642;2022-07-17T10:16:24;27.21;52.09
68251;DHT22;55066;51.560;4.642;2022-07-17T10:18:50;26.87;44.10
68251;DHT22;55066;51.560;4.642;2022-07-17T10:21:19;26.55;46.53
68251;DHT22;55066;51.560;4.642;2022-07-17T10:26:34;25.82;45.92
68251;DHT22;55066;51.560;4.642;2022-07-17T10:29:08;27.03;51.72
68251;DHT22;55066;51.560;4.642;2022-07-17T10:31:34;26.05;45.40
68251;DHT22;55066;51.560;4.642;2022-07-17T10:34:04;25.80;46.36
68251;DHT22;55066;51.560;4.642;2022-07-17T10:36:37;27.73;50.68
68251;DHT22;55066;51.560;4.642;2022-07-17T10:39:20;29.09;50.50
68251;DHT22;55066;51.560;4.642;2022-07-17T10:42:00;28.92;41.56
68251;DHT22;55066;51.560;4.642;2022-07-17T10:44:31;28.43;46.91
68251;DHT22;55066;51.560;4.642;2022-07-17T10:46:58;26.89;45.71
68251;DHT22;55066;51.560;4.642;2022-07-17T10:49:24;26.92;48.35
68251;DHT22;55066;51.560;4.642;2022-07-17T10:51:50;26.80;47.75
68251;DHT22;55066;51.560;4.642;2022-07-17T10:54:17;27.21;44.92
68251;DHT22;55066;51.560;4.642;2022-07-17T10:56:42;26.58;47.81
68251;DHT22;55066;51.560;4.642;2022-07-17T10:59:10;26.80;47.86
68251;DHT22;55066;51.560;4.642;2022-07-17T11:01:35;26.90;49.36
68251;DHT22;55066;51.560;4.642;2022-07-17T11:04:01;26.21;50.07
68251;DHT22;55066;51.560;4.642;2022-07-17T11:06:34;26.37;45.78
68251;DHT22;55066;51.560;4.642;2022-07-17T11:09:11;27.84;54.71
68251;DHT22;55066;51.560;4.642;2022-07-17T11:14:12;27.50;43.55
68251;DHT22;55066;51.560;4.642;2022-07-17T11:16:45;27.31;46.89
68251;DHT22;55066;51.560;4.642;2022-07-17T11:19:11;28.57;45.77
68251;DHT22;55066;51.560;4.642;2022-07-17T11:21:47;29.64;51.05
68251;DHT22;55066;51.560;4.642;2022-07-17T11:24:13;31.33;47.21
68251;DHT22;55066;51.560;4.642;2022-07-17T11:26:38;32.03;45.24
68251;DHT22;55066;51.560;4.642;2022-07-17T11:29:04;30.15;39.64
68251;DHT22;55066;51.560;4.642;2022-07-17T11:31:29;29.23;50.54
68251;DHT22;55066;51.560;4.642;2022-07-17T11:34:00;27.86;44.66
68251;DHT22;55066;51.560;4.642;2022-07-17T11:36:30;28.40;52.65
68251;DHT22;55066;51.560;4.642;2022-07-17T11:39:03;28.05;42.46
68251;DHT22;55066;51.560;4.642;2022-07-17T11:41:33;29.33;49.82
68251;DHT22;55066;51.560;4.642;2022-07-17T11:43:58;28.76;52.32
68251;DHT22;55066;51.560;4.642;2022-07-17T11:46:25;28.76;44.45
68251;DHT22;55066;51.560;4.642;2022-07-17T11:48:50;29.60;46.00
68251;DHT22;55066;51.560;4.642;2022-07-17T11:51:16;29.81;53.85
68251;DHT22;55066;51.560;4.642;2022-07-17T11:53:43;30.63;49.71
68251;DHT22;55066;51.560;4.642;2022-07-17T11:56:19;30.18;46.05
68251;DHT22;55066;51.560;4.642;2022-07-17T11:58:47;29.00;45.56
68251;DHT22;55066;51.560;4.642;2022-07-17T12:01:13;28.21;46.08
68251;DHT22;55066;51.560;4.642;2022-07-17T12:03:39;28.76;53.24
68251;DHT22;55066;51.560;4.642;2022-07-17T12:06:05;28.89;47.93
68251;DHT22;55066;51.560;4.642;2022-07-17T12:08:32;29.84;53.85
68251;DHT22;55066;51.560;4.642;2022-07-17T12:11:07;30.73;39.99
68251;DHT22;55066;51.560;4.642;2022-07-17T12:13:38;29.91;41.04
68251;DHT22;55066;51.560;4.642;2022-07-17T12:18:59;32.05;49.38
68251;DHT22;55066;51.560;4.642;2022-07-17T12:21:26;31.76;44.30
68251;DHT22;55066;51.560;4.642;2022-07-17T12:24:01;31.42;42.27
68251;DHT22;55066;51.560;4.642;2022-07-17T12:26:27;31.63;49.33
68251;DHT22;55066;51.560;4.642;2022-07-17T12:28:53;30.37;39.54
68251;DHT22;55066;51.560;4.642;2022-07-17T12:31:19;30.78;50.09
68251;DHT22;55066;51.560;4.642;2022-07-17T12:33:45;31.83;45.71
68251;DHT22;55066;51.560;4.642;2022-07-17T12:36:12;30.40;44.81
68251;DHT22;55066;51.560;4.642;2022-07-17T12:38:38;30.33;43.25
68251;DHT22;55066;51.560;4.642;2022-07-17T12:41:03;30.08;44.68
68251;DHT22;55066;51.560;4.642;2022-07-17T12:43:30;31.87;45.86
68251;DHT22;55066;51.560;4.642;2022-07-17T12:45:56;33.07;45.15
68251;DHT22;55066;51.560;4.642;2022-07-17T12:48:21;32.48;47.44
68251;DHT22;55066;51.560;4.642;2022-07-17T12:50:47;32.27;38.04
68251;DHT22;55066;51.560;4.642;2022-07-17T12:53:13;31.42;47.08
68251;DHT22;55066;51.560;4.642;2022-07-17T12:55:38;30.92;48.36
68251;DHT22;55066;51.560;4.642;2022-07-17T12:58:04;32.29;44.90
68251;DHT22;55066;51.560;4.642;2022-07-17T13:00:30;29.91;37.95
68251;DHT22;55066;51.560;4.642;2022-07-17T13:02:55;30.36;44.91
68251;DHT22;55066;51.560;4.642;2022-07-17T13:05:21;30.56;39.95
68251;DHT22;55066;51.560;4.642;2022-07-17T13:07:46;30.12;38.57
68251;DHT22;55066;51.560;4.642;2022-07-17T13:10:12;31.50;47.93
68251;DHT22;55066;51.560;4.642;2022-07-17T13:12:37;31.22;45.16
68251;DHT22;55066;51.560;4.642;2022-07-17T13:15:03;32.11;47.99
68251;DHT22;55066;51.560;4.642;2022-07-17T13:17:29;32.70;46.23
68251;DHT22;55066;51.560;4.642;2022-07-17T13:19:54;33.23;35.00
68251;DHT22;55066;51.560;4.642;2022-07-17T13:22:20;31.76;38.57
68251;DHT22;55066;51.560;4.642;2022-07-17T13:24:45;30.28;42.48
68251;DHT22;55066;51.560;4.642;2022-07-17T13:27:10;31.28;46.97
68251;DHT22;55066;51.560;4.642;2022-07-17T13:29:37;32.36;46.43
68251;DHT22;55066;51.560;4.642;2022-07-17T13:32:03;33.59;44.37
68251;DHT22;55066;51.560;4.642;2022-07-17T13:34:29;31.46;36.64
68251;DHT22;55066;51.560;4.642;2022-07-17T13:36:54;31.23;39.85
68251;DHT22;55066;51.560;4.642;2022-07-17T13:39:20;29.80;45.93
68251;DHT22;55066;51.560;4.642;2022-07-17T13:41:45;29.27;41.00
68251;DHT22;55066;51.560;4.642;2022-07-17T13:44:12;30.94;41.78
68251;DHT22;55066;51.560;4.642;2022-07-17T13:46:38;31.05;37.49
68251;DHT22;55066;51.560;4.642;2022-07-17T13:49:03;31.39;44.71
68251;DHT22;55066;51.560;4.642;2022-07-17T13:51:29;32.24;45.88
68251;DHT22;55066;51.560;4.642;2022-07-17T13:53:56;33.11;34.53
68251;DHT22;55066;51.560;4.642;2022-07-17T13:56:23;33.73;41.32
68251;DHT22;55066;51.560;4.642;2022-07-17T13:58:48;32.87;43.27
68251;DHT22;55066;51.560;4.642;2022-07-17T14:01:14;32.69;41.12
68251;DHT22;55066;51.560;4.642;2022-07-17T14:03:40;31.73;34.43
68251;DHT22;55066;51.560;4.642;2022-07-17T14:06:06;31.69;36.54
68251;DHT22;55066;51.560;4.642;2022-07-17T14:08:31;31.15;34.92
68251;DHT22;55066;51.560;4.642;2022-07-17T14:10:58;31.32;39.96
68251;DHT22;55066;51.560;4.642;2022-07-17T14:13:23;32.08;35.83
68251;DHT22;55066;51.560;4.642;2022-07-17T14:15:49;33.11;40.26
68251;DHT22;55066;51.560;4.642;2022-07-17T14:18:14;32.95;33.81
68251;DHT22;55066;51.560;4.642;2022-07-17T14:20:43;34.37;43.01
68251;DHT22;55066;51.560;4.642;2022-07-17T14:23:08;34.77;42.76
68251;DHT22;55066;51.560;4.642;2022-07-17T14:25:34;33.51;43.51
68251;DHT22;55066;51.560;4.642;2022-07-17T14:27:59;32.48;41.91
68251;DHT22;55066;51.560;4.642;2022-07-17T14:30:25;32.03;35.94
68251;DHT22;55066;51.560;4.642;2022-07-17T14:32:50;32.93;36.09
68251;DHT22;55066;51.560;4.642;2022-07-17T14:35:16;33.68;42.01
68251;DHT22;55066;51.560;4.642;2022-07-17T14:37:44;32.89;35.18
68251;DHT22;55066;51.560;4.642;2022-07-17T14:40:11;32.20;37.30
68251;DHT22;55066;51.560;4.642;2022-07-17T14:42:37;32.78;40.91
68251;DHT22;55066;51.560;4.642;2022-07-17T14:45:03;32.31;33.83
68251;DHT22;55066;51.560;4.642;2022-07-17T14:47:28;32.52;46.00
68251;DHT22;55066;51.560;4.642;2022-07-17T14:49:54;31.65;36.32
68251;DHT22;55066;51.560;4.642;2022-07-17T14:52:19;31.35;41.40
68251;DHT22;55066;51.560;4.642;2022-07-17T14:54:44;32.21;38.67
68251;DHT22;55066;51.560;4.642;2022-07-17T14:57:10;34.03;42.81
68251;DHT22;55066;51.560;4.642;2022-07-17T14:59:35;32.89;34.30
68251;DHT22;55066;51.560;4.642;2022-07-17T15:02:01;32.08;38.54
68251;DHT22;55066;51.560;4.642;2022-07-17T15:04:26;31.07;39.13
68251;DHT22;55066;51.560;4.642;2022-07-17T15:06:52;30.87;38.23
68251;DHT22;55066;51.560;4.642;2022-07-17T15:09:17;31.21;36.89
68251;DHT22;55066;51.560;4.642;2022-07-17T15:11:43;31.29;36.88
68251;DHT22;55066;51.560;4.642;2022-07-17T15:14:08;32.87;32.97
68251;DHT22;55066;51.560;4.642;2022-07-17T15:16:34;32.91;36.19
68251;DHT22;55066;51.560;4.642;2022-07-17T15:18:59;33.08;42.15
68251;DHT22;55066;51.560;4.642;2022-07-17T15:21:24;34.41;42.03
68251;DHT22;55066;51.560;4.642;2022-07-17T15:23:50;31.98;34.12
68251;DHT22;55066;51.560;4.642;2022-07-17T15:26:15;31.62;46.53
68251;DHT22;55066;51.560;4.642;2022-07-17T15:28:40;32.18;35.53
68251;DHT22;55066;51.560;4.642;2022-07-17T15:31:06;32.36;40.45
68251;DHT22;55066;51.560;4.642;2022-07-17T15:33:32;33.85;41.05